createdAt,value
2022-10-18T00:00:52.554Z,7.55
2022-10-18T00:03:25.741Z,7.58
2022-10-18T00:06:00.064Z,7.60
2022-10-18T00:08:33.179Z,7.63
2022-10-18T00:11:06.949Z,7.61
2022-10-18T00:13:40.264Z,7.63
2022-10-18T00:16:16.603Z,7.66
2022-10-18T00:18:49.528Z,7.68
2022-10-18T00:21:24.148Z,7.72
2022-10-18T00:23:58.603Z,7.73
2022-10-18T00:26:32.526Z,7.74
2022-10-18T00:29:07.783Z,7.77
2022-10-18T00:31:41.023Z,7.78
2022-10-18T00:34:15.758Z,7.81
2022-10-18T00:36:48.865Z,7.79
2022-10-18T00:39:23.563Z,7.77
2022-10-18T00:41:56.370Z,7.73
2022-10-18T00:45:20.975Z,7.71
2022-10-18T00:50:37.691Z,7.70
2022-10-18T00:53:13.544Z,7.56
2022-10-18T00:55:46.494Z,7.56
2022-10-18T00:58:21.176Z,7.54
2022-10-18T01:00:54.226Z,7.53
2022-10-18T01:06:10.961Z,7.63
2022-10-18T01:09:14.038Z,7.47
2022-10-18T01:12:05.718Z,7.46
2022-10-18T01:14:44.863Z,7.41
2022-10-18T01:17:21.957Z,7.37
2022-10-18T01:20:37.920Z,7.33
2022-10-18T01:23:14.446Z,7.34
2022-10-18T01:25:53.148Z,7.28
2022-10-18T01:28:39.963Z,7.38
2022-10-18T01:31:14.296Z,7.40
2022-10-18T01:33:51.606Z,7.50
2022-10-18T01:36:27.966Z,7.44
2022-10-18T01:39:05.902Z,7.46
2022-10-18T01:41:38.991Z,7.47
2022-10-18T01:44:16.154Z,7.52
2022-10-18T01:46:50.320Z,7.47
2022-10-18T01:49:23.945Z,7.47
2022-10-18T01:51:57.222Z,7.49
2022-10-18T01:54:33.383Z,7.50
2022-10-18T01:57:10.427Z,7.51
2022-10-18T01:59:51.044Z,7.49
2022-10-18T02:02:45.800Z,7.48
2022-10-18T02:05:30.091Z,7.49
2022-10-18T02:08:19.295Z,7.48
2022-10-18T02:10:45.943Z,7.46
2022-10-18T02:13:22.065Z,7.45
2022-10-18T02:15:57.399Z,7.47
2022-10-18T02:18:33.218Z,7.53
2022-10-18T02:21:09.479Z,7.48
2022-10-18T02:23:44.407Z,7.47
2022-10-18T02:26:18.337Z,7.47
2022-10-18T02:28:51.556Z,7.46
2022-10-18T02:31:30.278Z,7.46
2022-10-18T02:34:08.215Z,7.45
2022-10-18T02:36:41.479Z,7.44
2022-10-18T02:39:21.907Z,7.49
2022-10-18T02:41:56.361Z,7.43
2022-10-18T02:44:29.851Z,7.42
2022-10-18T02:47:03.527Z,7.43
2022-10-18T02:49:36.900Z,7.41
2022-10-18T02:52:09.944Z,7.43
2022-10-18T02:54:43.236Z,7.41
2022-10-18T02:57:16.769Z,7.38
2022-10-18T02:59:50.274Z,7.37
2022-10-18T03:02:25.743Z,7.40
2022-10-18T03:04:59.008Z,7.41
2022-10-18T03:07:33.014Z,7.37
2022-10-18T03:10:08.230Z,7.40
2022-10-18T03:12:43.266Z,7.37
2022-10-18T03:15:16.561Z,7.37
2022-10-18T03:17:50.902Z,7.38
2022-10-18T03:20:24.044Z,7.37
2022-10-18T03:22:58.139Z,7.36
2022-10-18T03:25:31.396Z,7.35
2022-10-18T03:28:04.552Z,7.32
2022-10-18T03:30:38.922Z,7.30
2022-10-18T03:33:12.585Z,7.28
2022-10-18T03:35:45.832Z,7.27
2022-10-18T03:38:19.582Z,7.25
2022-10-18T03:40:52.980Z,7.22
2022-10-18T03:43:26.340Z,7.20
2022-10-18T03:45:59.522Z,7.13
2022-10-18T03:48:34.337Z,7.09
2022-10-18T03:51:07.769Z,7.11
2022-10-18T03:53:40.968Z,7.13
2022-10-18T03:56:15.274Z,7.13
2022-10-18T03:58:48.472Z,7.13
2022-10-18T04:01:22.105Z,7.09
2022-10-18T04:03:56.025Z,7.07
2022-10-18T04:06:29.164Z,7.08
2022-10-18T04:09:04.252Z,7.09
2022-10-18T04:11:38.369Z,7.10
2022-10-18T04:14:11.886Z,7.15
2022-10-18T04:16:44.968Z,7.13
2022-10-18T04:19:18.311Z,7.13
2022-10-18T04:21:53.557Z,7.17
2022-10-18T04:24:28.679Z,7.22
2022-10-18T04:27:02.587Z,7.27
2022-10-18T04:29:35.876Z,7.31
2022-10-18T04:32:10.014Z,7.35
2022-10-18T04:37:17.606Z,7.39
2022-10-18T04:39:53.845Z,7.38
2022-10-18T04:42:27.495Z,7.40
2022-10-18T04:45:01.822Z,7.43
2022-10-18T04:47:35.692Z,7.47
2022-10-18T04:50:14.496Z,7.47
2022-10-18T04:52:47.597Z,7.50
2022-10-18T04:55:21.492Z,7.51
2022-10-18T04:57:55.474Z,7.54
2022-10-18T05:00:28.864Z,7.60
2022-10-18T05:03:05.056Z,7.66
2022-10-18T05:06:00.309Z,7.66
2022-10-18T05:08:14.762Z,7.69
2022-10-18T05:10:48.700Z,7.68
2022-10-18T05:13:22.980Z,7.68
2022-10-18T05:15:56.198Z,7.67
2022-10-18T05:18:30.232Z,7.69
2022-10-18T05:21:03.899Z,7.68
2022-10-18T05:23:38.815Z,7.69
2022-10-18T05:26:13.683Z,7.72
2022-10-18T05:28:46.838Z,7.73
2022-10-18T05:31:20.394Z,7.75
2022-10-18T05:33:53.843Z,7.76
2022-10-18T05:36:27.102Z,7.74
2022-10-18T05:39:04.026Z,7.75
2022-10-18T05:41:35.366Z,7.75
2022-10-18T05:44:11.311Z,7.81
2022-10-18T05:46:44.537Z,7.82
2022-10-18T05:49:18.301Z,7.85
2022-10-18T05:51:51.503Z,7.82
2022-10-18T05:54:25.698Z,7.85
2022-10-18T05:56:58.830Z,7.88
2022-10-18T05:59:31.923Z,7.90
2022-10-18T06:02:05.487Z,7.93
2022-10-18T06:04:38.701Z,7.92
2022-10-18T06:07:12.225Z,7.93
2022-10-18T06:09:46.135Z,7.91
2022-10-18T06:12:19.306Z,7.90
2022-10-18T06:14:55.813Z,7.88
2022-10-18T06:17:31.818Z,7.82
2022-10-18T06:20:04.160Z,7.78
2022-10-18T06:22:37.430Z,7.75
2022-10-18T06:25:11.824Z,7.71
2022-10-18T06:27:44.995Z,7.71
2022-10-18T06:30:18.575Z,7.70
2022-10-18T06:32:51.740Z,7.72
2022-10-18T06:35:25.206Z,7.70
2022-10-18T06:37:58.529Z,7.70
2022-10-18T06:40:33.802Z,7.68
2022-10-18T06:43:20.680Z,7.56
2022-10-18T06:45:45.198Z,7.44
2022-10-18T06:50:58.324Z,7.27
2022-10-18T06:53:36.252Z,7.25
2022-10-18T06:56:12.279Z,7.13
2022-10-18T06:58:45.552Z,7.07
2022-10-18T07:01:19.895Z,7.05
2022-10-18T07:03:55.050Z,7.00
2022-10-18T07:06:28.394Z,7.01
2022-10-18T07:09:03.373Z,7.03
2022-10-18T07:11:37.001Z,7.05
2022-10-18T07:14:15.373Z,7.00
2022-10-18T07:16:45.760Z,6.97
2022-10-18T07:19:19.036Z,6.97
2022-10-18T07:21:52.126Z,7.00
2022-10-18T07:24:25.391Z,6.95
2022-10-18T07:26:58.541Z,6.98
2022-10-18T07:29:32.958Z,6.99
2022-10-18T07:32:06.502Z,7.04
2022-10-18T07:34:39.817Z,7.09
2022-10-18T07:37:13.035Z,7.11
2022-10-18T07:39:46.212Z,7.12
2022-10-18T07:42:19.451Z,7.07
2022-10-18T07:44:54.726Z,7.06
2022-10-18T07:47:30.084Z,7.06
2022-10-18T07:50:03.527Z,7.06
2022-10-18T07:52:38.277Z,7.12
2022-10-18T07:55:11.739Z,7.14
2022-10-18T07:57:44.869Z,7.18
2022-10-18T08:00:18.700Z,7.23
2022-10-18T08:02:53.471Z,7.25
2022-10-18T08:05:27.693Z,7.27
2022-10-18T08:08:04.390Z,7.26
2022-10-18T08:10:38.272Z,7.25
2022-10-18T08:13:11.372Z,7.24
2022-10-18T08:15:44.873Z,7.22
2022-10-18T08:18:18.371Z,7.21
2022-10-18T08:20:51.547Z,7.18
2022-10-18T08:23:24.699Z,7.20
2022-10-18T08:26:00.292Z,7.14
2022-10-18T08:28:35.286Z,7.14
2022-10-18T08:31:11.415Z,7.18
2022-10-18T08:33:44.807Z,7.17
2022-10-18T08:36:19.491Z,7.17
2022-10-18T08:38:53.002Z,7.19
2022-10-18T08:41:33.621Z,7.17
2022-10-18T08:44:11.878Z,7.17
2022-10-18T08:46:47.897Z,7.20
2022-10-18T08:49:28.620Z,7.18
2022-10-18T08:52:02.342Z,7.19
2022-10-18T08:54:39.189Z,7.20
2022-10-18T08:57:18.157Z,7.30
2022-10-18T08:59:51.266Z,7.36
2022-10-18T09:02:33.550Z,7.28
2022-10-18T09:05:12.205Z,7.27
2022-10-18T09:08:11.697Z,7.37
2022-10-18T09:10:48.904Z,7.40
2022-10-18T09:13:54.649Z,7.47
2022-10-18T09:16:33.577Z,7.53
2022-10-18T09:19:10.509Z,7.51
2022-10-18T09:21:47.195Z,7.60
2022-10-18T09:24:26.071Z,7.68
2022-10-18T09:27:04.615Z,7.68
2022-10-18T09:29:51.176Z,7.59
2022-10-18T09:32:33.603Z,7.68
2022-10-18T09:35:14.632Z,7.76
2022-10-18T09:37:49.505Z,7.81
2022-10-18T09:40:27.635Z,7.73
2022-10-18T09:43:03.800Z,7.66
2022-10-18T09:45:40.232Z,7.63
2022-10-18T09:48:17.393Z,7.60
2022-10-18T09:50:55.400Z,7.59
2022-10-18T09:53:30.496Z,7.60
2022-10-18T09:56:06.748Z,7.68
2022-10-18T09:58:46.697Z,7.63
2022-10-18T10:01:22.800Z,7.59
2022-10-18T10:03:57.851Z,7.58
2022-10-18T10:06:34.642Z,7.68
2022-10-18T10:09:12.079Z,7.72
2022-10-18T10:11:48.836Z,7.80
2022-10-18T10:14:24.895Z,7.85
2022-10-18T10:17:02.325Z,7.83
2022-10-18T10:19:39.408Z,7.83
2022-10-18T10:22:14.658Z,7.84
2022-10-18T10:24:51.147Z,7.88
2022-10-18T10:27:31.561Z,7.94
2022-10-18T10:30:07.636Z,8.02
2022-10-18T10:32:50.148Z,8.09
2022-10-18T10:35:41.335Z,8.17
2022-10-18T10:38:01.103Z,8.17
2022-10-18T10:40:35.018Z,8.16
2022-10-18T10:43:36.509Z,8.22
2022-10-18T10:46:01.932Z,8.30
2022-10-18T10:48:43.438Z,8.39
2022-10-18T10:51:18.562Z,8.46
2022-10-18T10:53:55.732Z,8.52
2022-10-18T10:56:32.369Z,8.57
2022-10-18T10:59:12.361Z,8.63
2022-10-18T11:01:47.946Z,8.65
2022-10-18T11:04:31.465Z,8.68
2022-10-18T11:07:10.135Z,8.74
2022-10-18T11:09:49.556Z,8.78
2022-10-18T11:12:30.509Z,8.80
2022-10-18T11:15:19.452Z,8.81
2022-10-18T11:18:00.343Z,8.85
2022-10-18T11:20:36.777Z,8.86
2022-10-18T11:23:12.627Z,8.86
2022-10-18T11:26:02.389Z,8.95
2022-10-18T11:28:47.738Z,9.02
2022-10-18T11:31:24.180Z,9.10
2022-10-18T11:34:11.224Z,9.19
2022-10-18T11:36:49.322Z,9.23
2022-10-18T11:39:20.418Z,9.29
2022-10-18T11:42:01.458Z,9.34
2022-10-18T11:44:37.782Z,9.42
2022-10-18T11:47:15.158Z,9.53
2022-10-18T11:50:02.079Z,9.57
2022-10-18T11:52:39.363Z,9.70
2022-10-18T11:55:27.722Z,9.80
2022-10-18T11:58:03.826Z,9.91
2022-10-18T12:00:48.805Z,9.98
2022-10-18T12:03:39.574Z,10.02
2022-10-18T12:06:16.450Z,10.05
2022-10-18T12:08:52.900Z,10.11
2022-10-18T12:11:30.766Z,10.14
2022-10-18T12:14:07.026Z,10.21
2022-10-18T12:16:51.523Z,10.26
2022-10-18T12:19:25.189Z,10.29
2022-10-18T12:21:58.381Z,10.35
2022-10-18T12:24:33.381Z,10.41
2022-10-18T12:27:07.481Z,10.45
2022-10-18T12:29:45.446Z,10.51
2022-10-18T12:32:22.237Z,10.57
2022-10-18T12:34:58.292Z,10.64
2022-10-18T12:40:52.743Z,10.88
2022-10-18T12:43:30.611Z,10.79
2022-10-18T12:46:03.320Z,10.83
2022-10-18T12:48:39.193Z,10.98
2022-10-18T12:51:18.397Z,10.95
2022-10-18T12:53:54.408Z,10.99
2022-10-18T12:56:45.143Z,11.05
2022-10-18T12:59:54.576Z,11.11
2022-10-18T13:02:31.497Z,11.11
2022-10-18T13:05:41.017Z,11.11
2022-10-18T13:08:05.903Z,11.13
2022-10-18T13:10:39.450Z,11.24
2022-10-18T13:13:39.228Z,11.35
2022-10-18T13:16:05.507Z,11.34
2022-10-18T13:18:49.397Z,11.45
2022-10-18T13:21:27.454Z,11.52
2022-10-18T13:24:28.394Z,11.52
2022-10-18T13:30:23.203Z,11.71
2022-10-18T13:33:00.454Z,11.31
2022-10-18T13:35:55.662Z,11.52
2022-10-18T13:42:23.953Z,11.73
2022-10-18T13:45:00.800Z,11.57
2022-10-18T13:47:38.474Z,11.50
2022-10-18T13:50:39.843Z,11.56
2022-10-18T13:53:42.319Z,11.55
2022-10-18T13:56:29.545Z,11.55
2022-10-18T13:59:15.354Z,11.55
2022-10-18T14:02:02.229Z,11.55
2022-10-18T14:04:51.330Z,11.56
2022-10-18T14:07:26.580Z,11.58
2022-10-18T14:10:04.304Z,11.57
2022-10-18T14:12:42.649Z,11.60
2022-10-18T14:15:23.320Z,11.60
2022-10-18T14:18:00.176Z,11.62
2022-10-18T14:20:49.030Z,11.65
2022-10-18T14:23:11.323Z,11.66
2022-10-18T14:25:45.350Z,11.72
2022-10-18T14:28:27.344Z,11.64
2022-10-18T14:30:59.100Z,11.64
2022-10-18T14:33:37.035Z,11.63
2022-10-18T14:36:15.745Z,11.69
2022-10-18T14:38:55.791Z,11.72
2022-10-18T14:41:32.110Z,11.74
2022-10-18T14:44:15.127Z,11.73
2022-10-18T14:46:51.549Z,11.84
2022-10-18T14:49:25.858Z,11.74
2022-10-18T14:52:02.406Z,11.71
2022-10-18T14:54:40.005Z,11.70
2022-10-18T14:57:21.780Z,11.71
2022-10-18T15:00:00.757Z,11.69
2022-10-18T15:02:41.906Z,11.67
2022-10-18T15:05:23.590Z,11.65
2022-10-18T15:08:00.446Z,11.66
2022-10-18T15:10:37.089Z,11.66
2022-10-18T15:13:13.803Z,11.64
2022-10-18T15:15:48.882Z,11.67
2022-10-18T15:18:27.789Z,11.58
2022-10-18T15:21:23.523Z,11.53
2022-10-18T15:24:00.556Z,11.46
2022-10-18T15:26:35.128Z,11.41
2022-10-18T15:29:10.846Z,11.42
2022-10-18T15:31:45.674Z,11.38
2022-10-18T15:34:23.432Z,11.32
2022-10-18T15:36:58.481Z,11.27
2022-10-18T15:39:33.170Z,11.28
2022-10-18T15:42:09.284Z,11.19
2022-10-18T15:44:52.490Z,11.08
2022-10-18T15:47:26.528Z,11.07
2022-10-18T15:50:04.548Z,11.01
2022-10-18T15:52:45.208Z,10.97
2022-10-18T16:29:41.170Z,10.00
2022-10-18T16:55:36.018Z,9.95
2022-10-18T16:58:19.936Z,9.80
2022-10-18T17:01:00.345Z,9.80
2022-10-18T17:03:34.270Z,9.76
2022-10-18T17:06:09.794Z,9.78
2022-10-18T17:08:53.117Z,9.78
2022-10-18T17:11:34.554Z,9.69
2022-10-18T17:14:15.177Z,9.63
2022-10-18T17:16:53.079Z,9.62
2022-10-18T17:19:26.227Z,9.56
2022-10-18T17:22:06.341Z,9.50
2022-10-18T17:24:46.808Z,9.47
2022-10-18T17:27:26.750Z,9.42
2022-10-18T17:30:01.500Z,9.42
2022-10-18T17:32:35.282Z,9.43
2022-10-18T17:35:12.673Z,9.50
2022-10-18T17:37:48.278Z,9.51
2022-10-18T17:40:26.294Z,9.48
2022-10-18T17:43:05.610Z,9.42
2022-10-18T17:45:40.542Z,9.39
2022-10-18T17:48:24.725Z,9.36
2022-10-18T17:51:06.074Z,9.34
2022-10-18T17:56:38.667Z,9.34
2022-10-18T17:59:12.655Z,9.31
2022-10-18T18:01:49.754Z,9.25
2022-10-18T18:04:25.429Z,9.18
2022-10-18T18:07:04.971Z,9.18
2022-10-18T18:09:50.462Z,9.17
2022-10-18T18:12:26.037Z,9.10
2022-10-18T18:15:04.391Z,9.07
2022-10-18T18:17:55.996Z,8.98
2022-10-18T18:20:16.440Z,8.85
2022-10-18T18:22:56.462Z,8.75
2022-10-18T18:25:30.612Z,8.65
2022-10-18T18:28:10.288Z,8.55
2022-10-18T18:30:45.563Z,8.48
2022-10-18T18:33:22.358Z,8.43
2022-10-18T18:35:59.651Z,8.38
2022-10-18T18:38:34.105Z,8.36
2022-10-18T18:41:12.395Z,8.35
2022-10-18T18:43:50.016Z,8.35
2022-10-18T18:46:24.098Z,8.38
2022-10-18T18:48:58.542Z,8.40
2022-10-18T18:51:32.902Z,8.40
2022-10-18T18:54:06.186Z,8.39
2022-10-18T18:56:39.604Z,8.35
2022-10-18T18:59:15.755Z,8.27
2022-10-18T19:01:48.977Z,8.19
2022-10-18T19:04:22.460Z,8.14
2022-10-18T19:06:55.576Z,8.10
2022-10-18T19:09:28.934Z,8.15
2022-10-18T19:12:02.161Z,8.21
2022-10-18T19:14:35.733Z,8.25
2022-10-18T19:17:12.927Z,8.26
2022-10-18T19:19:47.892Z,8.24
2022-10-18T19:22:23.495Z,8.23
2022-10-18T19:24:59.800Z,8.19
2022-10-18T19:27:34.635Z,8.15
2022-10-18T19:30:15.306Z,8.10
2022-10-18T19:32:50.236Z,8.06
2022-10-18T19:47:00.923Z,7.98
2022-10-18T19:50:19.029Z,7.81
2022-10-18T19:53:06.392Z,7.72
2022-10-18T20:00:56.198Z,7.64
2022-10-18T20:20:03.338Z,7.84
2022-10-18T20:22:36.423Z,7.73
2022-10-18T20:25:11.648Z,7.78
2022-10-18T20:27:45.145Z,7.82
2022-10-18T20:30:21.220Z,7.80
2022-10-18T20:32:55.389Z,7.77
2022-10-18T20:35:28.631Z,7.76
2022-10-18T20:38:01.799Z,7.73
2022-10-18T20:40:35.357Z,7.72
2022-10-18T20:43:09.319Z,7.71
2022-10-18T20:45:42.591Z,7.67
2022-10-18T20:48:15.782Z,7.64
2022-10-18T20:50:48.926Z,7.61
2022-10-18T20:53:23.138Z,7.59
2022-10-18T20:56:04.563Z,7.63
2022-10-18T20:58:38.909Z,7.68
2022-10-18T21:01:14.253Z,7.74
2022-10-18T21:03:49.619Z,7.78
2022-10-18T21:06:24.871Z,7.78
2022-10-18T21:08:59.367Z,7.76
2022-10-18T21:11:34.914Z,7.74
2022-10-18T21:14:09.119Z,7.77
2022-10-18T21:16:44.148Z,7.82
2022-10-18T21:19:21.190Z,7.88
2022-10-18T21:21:59.346Z,7.96
2022-10-18T21:24:41.327Z,8.01
2022-10-18T21:27:18.436Z,8.12
2022-10-18T21:29:53.168Z,8.21
2022-10-18T21:32:27.631Z,8.31
2022-10-18T21:35:04.953Z,8.39
2022-10-18T21:37:51.116Z,8.44
2022-10-18T21:40:33.660Z,8.39
2022-10-18T21:43:09.091Z,8.34
2022-10-18T21:45:43.002Z,8.33
2022-10-18T21:52:16.744Z,8.59
2022-10-18T22:32:33.975Z,8.62
2022-10-18T22:35:10.082Z,8.48
2022-10-18T22:37:43.141Z,8.46
2022-10-18T22:40:19.707Z,8.43
2022-10-18T22:42:56.045Z,8.41
2022-10-18T22:45:30.008Z,8.39
2022-10-18T22:48:07.983Z,8.39
2022-10-18T22:50:41.459Z,8.41
2022-10-18T22:53:14.691Z,8.42
2022-10-18T22:55:50.269Z,8.44
2022-10-18T22:58:26.345Z,8.50
2022-10-18T23:01:06.169Z,8.57
2022-10-18T23:03:42.453Z,8.66
2022-10-18T23:06:25.686Z,8.73
2022-10-18T23:09:00.982Z,8.80
2022-10-18T23:11:37.827Z,8.81
2022-10-18T23:14:11.815Z,8.82
2022-10-18T23:16:48.171Z,8.81
2022-10-18T23:19:21.880Z,8.79
2022-10-18T23:21:55.101Z,8.80
2022-10-18T23:24:28.565Z,8.78
2022-10-18T23:27:01.684Z,8.77
2022-10-18T23:29:34.890Z,8.76
2022-10-18T23:32:09.028Z,8.73
2022-10-18T23:34:42.241Z,8.70
2022-10-18T23:37:15.430Z,8.63
2022-10-18T23:39:48.642Z,8.55
2022-10-18T23:42:21.734Z,8.51
2022-10-18T23:44:54.854Z,8.46
2022-10-18T23:47:27.986Z,8.41
2022-10-18T23:50:01.062Z,8.38
2022-10-18T23:52:34.292Z,8.38
2022-10-18T23:55:09.401Z,8.40
2022-10-18T23:57:43.890Z,8.42
